View Sortable Currents For Network
ASOSAWOSCoCoRaHSCOOPDCPISUSM
SchoolNetOtherSCANMy FavoritesBy StateRWIS
RWIS SurfaceRWIS TrafficRWIS SoilBy NWS WFO

Current SCAN Conditions

Sorted by: (Observation Time [local])     Click on a column to sort it.
ADD: Station: Ob Time Temps °F   Wind [knots]  
Air (Hi / Lo) DewP Feels RH% Speed Direction Gust @Time Solar Rad
Spickard01:00 AM 71(73/71) 72 71 101 2G4.404@ 01:00 AM0
Rodgers Farm01:00 AM 64(65/64) 65 64 103 1G2.703@ 01:00 AM0
SHAGBARK HILLS01:00 AM 66(67/66) 65 66 97 0G1.402@ 12:00 AM0
Crescent Lake No101:00 AM 64(64/63) 61 64 90 000
Eros Data Center01:00 AM 65(65/65) 63 65 94 000
Ames01:00 AM 67(69/67) 67 67 100 2G404@ 01:00 AM0
Powell Gardens01:00 AM 72(73/72) 71 72 96 000
Mt Vernon01:00 AM 73(74/73) 74 73 102 3G4.305@ 12:00 AM0
Mason01:00 AM 69(70/69) 69 69 101 1G2.803@ 01:00 AM0
Schell-Osage02:00 AM 70(72/70) 71 70 102 000
Platteville02:00 AM 65(67/65) 66 65 101 000
Shaw Nature Reserve02:00 AM 71(71/71) 71 71 98 000
Mark Twain HS02:00 AM 76(78/76) 76 76 98 000
Elsberry PMC02:00 AM 71(72/71) 70 71 99 000
Twin Pines Conservation02:00 AM 72(72/72) 71 72 97 000
Journagan Ranch02:00 AM 71(71/70) 71 71 101 000
Busby Farm02:00 AM 72(74/72) 72 72 99 000
CMRB LTAR02:00 AM 72(73/72) 73 72 103 000
Dexter02:00 AM 75(75/75) 73 75 95 000
Carver Farm02:00 AM 72(74/72) 72 72 98 000


SCAN Soil Conditions

  2 inch 4 inch 8 inch 20 inch 40 inch
Station: Ob Time: Moist:Temp: Moist:Temp: Moist:Temp: Moist:Temp: Moist:Temp:
Spickard01:00 AM 10 70 250 290 420
Rodgers Farm01:00 AM 190 200 300 520 490
SHAGBARK HILLS01:00 AM 230 250 330 290 380
Crescent Lake No101:00 AM 20 50 60 30 70
Eros Data Center01:00 AM 200 220 220 310 400
Ames01:00 AM 230 370 380 540 440
Powell Gardens01:00 AM 150 100 150 100 400
Mt Vernon01:00 AM 270 200 270 420 00
Mason01:00 AM 100 100 120 50 180
Schell-Osage02:00 AM -1000 130 170 170 330
Platteville02:00 AM 270 240 290 320 490
Shaw Nature Reserve02:00 AM 50 110 150 270 340
Mark Twain HS02:00 AM 140 150 120 390 320
Elsberry PMC02:00 AM 180 170 240 210 360
Twin Pines Conservation02:00 AM 200 200 190 140 240
Journagan Ranch02:00 AM 150 80 250 230 200
Busby Farm02:00 AM 110 160 130 290 220
CMRB LTAR02:00 AM 230 220 210 220 420
Dexter02:00 AM 280 250 220 280 300
Carver Farm02:00 AM 150 130 160 130 360